Historyczne dane pomiarowe

Dodano dane terminowe – wersja testowa.

Dane z okresu 1951-2019

Wersja bazy: 1.34 [2019-03-16, lista zmian], aktualizacja planowana na 2019-04-15

Dane meteo z obszaru Polski uzyskane na podstawie danych udostępnionych przez Instytut Meteorologii i Gospodarki Wodnej – Państwowy Instytut Badawczy.

 

Wybierz Datę:    

       

TemperaturaWilgotnośćZachmurzenieWiatrCiśnienieWidzialnośćZjawiska
 Data    tng td wb rh cc ccl cl cm ch dir g1 g2 mslp ppp      
1999-06-26 00:00:00 11.0--- 10.3 10.695wxwxwxwx4wx--1019.7 994.8 0.0---wx
1999-06-26 01:00:00 10.6--- 9.9 10.295wxwxwxwx2wx--1018.7 993.8----wx
1999-06-26 02:00:00 10.6--- 9.9 10.295wxwxwxwx1wx--1019.1 994.2----wx
1999-06-26 03:00:00 10.0--- 9.4 9.796wxwxwx1wx--1018.7 993.7----wxw1
1999-06-26 04:00:00 10.0--- 9.4 9.796wxwxwx1wx--1017.8 992.9----wx
1999-06-26 05:00:00 10.6--- 10.2 10.498wxwxwx1wx--1017.6 992.7----wx
1999-06-26 06:00:00 12.2--- 9.6 10.884wxwxwx1wx--1016.9 992.2 0.4---wxw1
1999-06-26 07:00:00 14.1--- 11.1 12.482wxwxwx2wx--1016.5 991.9----wx
1999-06-26 08:00:00 15.8--- 12.6 13.981wxwxwx2wx--1015.9 991.5----wx
1999-06-26 09:00:00 17.8--- 13.0 14.973wxwxwx1wx--1015.2 991.0----wx
1999-06-26 10:00:00 20.8--- 12.3 15.758wxwxwx3wx--1014.4 990.4----wx
1999-06-26 11:00:00 22.3--- 13.5 16.958wxwxwxwx4wx--1014.0 990.2----wx
1999-06-26 12:00:00 23.4--- 13.7 17.455wxwxwx5wx--1013.4 989.7 0.0---wx
1999-06-26 13:00:00 24.3--- 15.2 18.557wxwxwx5wx--1013.4 989.7----wx
1999-06-26 14:00:00 23.4--- 15.0 18.159wxwxwxwx4wx--1013.1 989.4----wx
1999-06-26 15:00:00 23.9--- 15.1 18.358wxwxwxwx4wx--1012.7 989.0----wx
1999-06-26 16:00:00 23.6--- 15.6 18.561wxwxwx3wx--1012.4 988.7----wx
1999-06-26 17:00:00 23.0--- 15.3 18.162wxwxwx2wx--1012.5 988.8----wx
1999-06-26 18:00:00 21.8--- 13.1 16.558wxwxwx2wx--1012.5 988.7 0.0---wx
1999-06-26 19:00:00 20.1--- 13.6 16.166wxwxwx3wx--1012.9 988.9----wx
1999-06-26 20:00:00 17.4--- 12.7 14.674wxwxwxwx2wx--1013.5 989.3----wx
1999-06-26 21:00:00 15.6--- 12.0 13.579wxwxwx1wx--1013.9 989.5----wx
1999-06-26 22:00:00 15.4--- 12.1 13.581wxwxwx2wx--1014.1 989.7----wx
1999-06-26 23:00:00 14.3--- 11.3 12.682wxwxwx1wx--1014.5 990.0----wx

 

Źródłem pochodzenia danych jest Instytut Meteorologii i Gospodarki Wodnej – Państwowy Instytut Badawczy. Dane Instytutu Meteorologii i Gospodarki Wodnej – Państwowego Instytutu Badawczego zostały przetworzone.

Dane źródłowe można odnaleźć na stronie https://dane.imgw.pl